sensor_id;sensor_type;location;lat;lon;timestamp;pressure;altitude;pressure_sealevel;temperature;humidity
48606;BME280;8482;54.396;18.590;2022-12-10T15:08:42;100959.59;;;-0.21;73.26
48606;BME280;8482;54.396;18.590;2022-12-10T15:11:16;100957.13;;;-0.26;73.95
48606;BME280;8482;54.396;18.590;2022-12-10T15:13:47;100956.22;;;-0.25;74.52
48606;BME280;8482;54.396;18.590;2022-12-10T15:16:28;100962.34;;;-0.26;74.10
48606;BME280;8482;54.396;18.590;2022-12-10T15:18:55;100961.41;;;-0.23;73.64
48606;BME280;8482;54.396;18.590;2022-12-10T15:21:25;100964.00;;;-0.23;73.85
48606;BME280;8482;54.396;18.590;2022-12-10T15:24:14;100964.91;;;-0.24;73.41
48606;BME280;8482;54.396;18.590;2022-12-10T15:26:46;100964.81;;;-0.21;73.60
48606;BME280;8482;54.396;18.590;2022-12-10T15:29:33;100963.94;;;-0.20;73.34
48606;BME280;8482;54.396;18.590;2022-12-10T15:32:11;100962.97;;;-0.18;73.05
48606;BME280;8482;54.396;18.590;2022-12-10T15:34:52;100961.19;;;-0.17;72.66
48606;BME280;8482;54.396;18.590;2022-12-10T15:37:36;100962.88;;;-0.14;72.37
48606;BME280;8482;54.396;18.590;2022-12-10T15:40:19;100962.00;;;-0.15;71.83
48606;BME280;8482;54.396;18.590;2022-12-10T15:42:47;100959.50;;;-0.18;71.86
48606;BME280;8482;54.396;18.590;2022-12-10T15:45:38;100957.94;;;-0.24;71.66
48606;BME280;8482;54.396;18.590;2022-12-10T15:48:10;100963.34;;;-0.30;71.85
48606;BME280;8482;54.396;18.590;2022-12-10T15:50:38;100966.94;;;-0.34;71.29
48606;BME280;8482;54.396;18.590;2022-12-10T15:53:12;100969.63;;;-0.37;71.08
48606;BME280;8482;54.396;18.590;2022-12-10T15:55:39;100961.09;;;-0.42;71.92
48606;BME280;8482;54.396;18.590;2022-12-10T15:58:13;100965.44;;;-0.43;71.82
48606;BME280;8482;54.396;18.590;2022-12-10T16:00:40;100960.38;;;-0.48;71.31
48606;BME280;8482;54.396;18.590;2022-12-10T16:03:15;100967.25;;;-0.45;71.61
48606;BME280;8482;54.396;18.590;2022-12-10T16:05:42;100964.69;;;-0.47;71.60
48606;BME280;8482;54.396;18.590;2022-12-10T16:10:50;100953.75;;;-0.59;70.55
48606;BME280;8482;54.396;18.590;2022-12-10T16:13:21;100962.44;;;-0.59;71.34
48606;BME280;8482;54.396;18.590;2022-12-10T16:15:59;100949.63;;;-0.67;71.10
48606;BME280;8482;54.396;18.590;2022-12-10T16:18:26;100964.44;;;-0.67;71.14
48606;BME280;8482;54.396;18.590;2022-12-10T16:20:52;100958.44;;;-0.71;71.26
48606;BME280;8482;54.396;18.590;2022-12-10T16:23:18;100963.75;;;-0.74;70.93
48606;BME280;8482;54.396;18.590;2022-12-10T16:25:44;100957.75;;;-0.78;71.01
48606;BME280;8482;54.396;18.590;2022-12-10T16:28:17;100969.88;;;-0.77;71.20
48606;BME280;8482;54.396;18.590;2022-12-10T16:30:47;100973.44;;;-0.79;70.86
48606;BME280;8482;54.396;18.590;2022-12-10T16:33:19;100966.53;;;-0.80;71.04
48606;BME280;8482;54.396;18.590;2022-12-10T16:35:47;100967.41;;;-0.81;71.49
48606;BME280;8482;54.396;18.590;2022-12-10T16:38:13;100963.91;;;-0.80;71.18
48606;BME280;8482;54.396;18.590;2022-12-10T16:40:42;100968.31;;;-0.82;71.44
48606;BME280;8482;54.396;18.590;2022-12-10T16:43:28;100956.16;;;-0.82;71.83
48606;BME280;8482;54.396;18.590;2022-12-10T16:45:55;100953.50;;;-0.80;71.98
48606;BME280;8482;54.396;18.590;2022-12-10T16:48:22;100958.63;;;-0.77;71.50
48606;BME280;8482;54.396;18.590;2022-12-10T16:50:52;100948.22;;;-0.77;72.10
48606;BME280;8482;54.396;18.590;2022-12-10T16:53:29;100955.94;;;-0.74;71.50
48606;BME280;8482;54.396;18.590;2022-12-10T16:55:57;100952.53;;;-0.78;71.79
48606;BME280;8482;54.396;18.590;2022-12-10T16:58:24;100962.84;;;-0.73;71.43
48606;BME280;8482;54.396;18.590;2022-12-10T17:00:52;100964.50;;;-0.70;71.54
48606;BME280;8482;54.396;18.590;2022-12-10T17:03:25;100964.53;;;-0.72;71.67
48606;BME280;8482;54.396;18.590;2022-12-10T17:05:58;100960.28;;;-0.74;71.76
48606;BME280;8482;54.396;18.590;2022-12-10T17:08:26;100958.50;;;-0.72;72.15
48606;BME280;8482;54.396;18.590;2022-12-10T17:10:54;100959.31;;;-0.70;72.31
48606;BME280;8482;54.396;18.590;2022-12-10T17:13:41;100954.91;;;-0.68;71.98
48606;BME280;8482;54.396;18.590;2022-12-10T17:16:19;100943.69;;;-0.72;72.24
48606;BME280;8482;54.396;18.590;2022-12-10T17:18:46;100949.56;;;-0.64;72.42
48606;BME280;8482;54.396;18.590;2022-12-10T17:21:12;100946.06;;;-0.63;72.13
48606;BME280;8482;54.396;18.590;2022-12-10T17:23:38;100946.00;;;-0.61;72.91
48606;BME280;8482;54.396;18.590;2022-12-10T17:26:04;100948.47;;;-0.56;72.56
48606;BME280;8482;54.396;18.590;2022-12-10T17:28:31;100952.66;;;-0.51;72.13
48606;BME280;8482;54.396;18.590;2022-12-10T17:30:57;100958.66;;;-0.47;72.67
48606;BME280;8482;54.396;18.590;2022-12-10T17:33:24;100959.44;;;-0.45;72.88
48606;BME280;8482;54.396;18.590;2022-12-10T17:35:52;100950.63;;;-0.41;72.63
48606;BME280;8482;54.396;18.590;2022-12-10T17:38:24;100958.34;;;-0.38;72.59
48606;BME280;8482;54.396;18.590;2022-12-10T17:40:52;100958.38;;;-0.39;72.37
48606;BME280;8482;54.396;18.590;2022-12-10T17:43:18;100959.25;;;-0.39;72.49
48606;BME280;8482;54.396;18.590;2022-12-10T17:45:44;100963.56;;;-0.38;72.31
48606;BME280;8482;54.396;18.590;2022-12-10T17:48:16;100949.19;;;-0.51;72.13
48606;BME280;8482;54.396;18.590;2022-12-10T17:50:45;100968.03;;;-0.41;72.12
48606;BME280;8482;54.396;18.590;2022-12-10T17:53:13;100963.84;;;-0.47;72.15
48606;BME280;8482;54.396;18.590;2022-12-10T17:55:50;100970.75;;;-0.46;71.90
48606;BME280;8482;54.396;18.590;2022-12-10T17:58:17;100969.06;;;-0.47;71.96
48606;BME280;8482;54.396;18.590;2022-12-10T18:00:46;100963.97;;;-0.52;72.44
48606;BME280;8482;54.396;18.590;2022-12-10T18:03:12;100969.31;;;-0.56;72.18
48606;BME280;8482;54.396;18.590;2022-12-10T18:05:39;100977.19;;;-0.58;72.28
48606;BME280;8482;54.396;18.590;2022-12-10T18:08:05;100976.38;;;-0.60;71.83
48606;BME280;8482;54.396;18.590;2022-12-10T18:10:33;100958.41;;;-0.69;71.72
48606;BME280;8482;54.396;18.590;2022-12-10T18:13:00;100960.97;;;-0.68;71.91
48606;BME280;8482;54.396;18.590;2022-12-10T18:15:29;100969.72;;;-0.70;71.86
48606;BME280;8482;54.396;18.590;2022-12-10T18:17:56;100976.66;;;-0.69;72.41
48606;BME280;8482;54.396;18.590;2022-12-10T18:20:33;100954.31;;;-0.78;71.78
48606;BME280;8482;54.396;18.590;2022-12-10T18:23:02;100966.44;;;-0.77;72.17
48606;BME280;8482;54.396;18.590;2022-12-10T18:25:29;100972.50;;;-0.77;71.93
48606;BME280;8482;54.396;18.590;2022-12-10T18:27:59;100980.31;;;-0.77;72.19
48606;BME280;8482;54.396;18.590;2022-12-10T18:30:27;100977.88;;;-0.83;72.19
48606;BME280;8482;54.396;18.590;2022-12-10T18:32:53;100979.53;;;-0.80;72.24
48606;BME280;8482;54.396;18.590;2022-12-10T18:35:19;100978.72;;;-0.82;72.31
48606;BME280;8482;54.396;18.590;2022-12-10T18:37:45;100981.34;;;-0.82;71.97
48606;BME280;8482;54.396;18.590;2022-12-10T18:40:19;100982.34;;;-0.86;71.93
48606;BME280;8482;54.396;18.590;2022-12-10T18:42:46;100981.41;;;-0.85;71.64
48606;BME280;8482;54.396;18.590;2022-12-10T18:45:13;100985.84;;;-0.87;72.02
48606;BME280;8482;54.396;18.590;2022-12-10T18:47:39;100986.75;;;-0.90;72.01
48606;BME280;8482;54.396;18.590;2022-12-10T18:50:20;100981.72;;;-0.96;71.25
48606;BME280;8482;54.396;18.590;2022-12-10T18:52:46;100984.34;;;-0.98;71.78
48606;BME280;8482;54.396;18.590;2022-12-10T18:55:12;100983.44;;;-0.95;71.39
48606;BME280;8482;54.396;18.590;2022-12-10T18:57:38;100982.75;;;-1.03;71.87
48606;BME280;8482;54.396;18.590;2022-12-10T19:00:12;100982.56;;;-0.96;71.83
48606;BME280;8482;54.396;18.590;2022-12-10T19:02:38;100963.91;;;-1.12;72.02
48606;BME280;8482;54.396;18.590;2022-12-10T19:05:04;100979.19;;;-0.99;71.70
48606;BME280;8482;54.396;18.590;2022-12-10T19:07:31;100985.22;;;-0.97;71.67
48606;BME280;8482;54.396;18.590;2022-12-10T19:09:57;100988.66;;;-0.97;71.15
48606;BME280;8482;54.396;18.590;2022-12-10T19:12:23;100989.56;;;-0.98;71.06
48606;BME280;8482;54.396;18.590;2022-12-10T19:14:49;100984.34;;;-0.98;71.19
48606;BME280;8482;54.396;18.590;2022-12-10T19:17:15;100977.53;;;-1.02;70.95
48606;BME280;8482;54.396;18.590;2022-12-10T19:19:41;100989.66;;;-1.01;71.18
48606;BME280;8482;54.396;18.590;2022-12-10T19:22:07;100985.28;;;-1.00;71.42
48606;BME280;8482;54.396;18.590;2022-12-10T19:24:32;100989.69;;;-1.02;70.84
48606;BME280;8482;54.396;18.590;2022-12-10T19:26:58;100990.59;;;-1.03;71.42
48606;BME280;8482;54.396;18.590;2022-12-10T19:29:24;100994.06;;;-1.03;70.98
48606;BME280;8482;54.396;18.590;2022-12-10T19:31:51;100998.38;;;-1.03;71.18
48606;BME280;8482;54.396;18.590;2022-12-10T19:34:19;101000.97;;;-1.02;70.98
48606;BME280;8482;54.396;18.590;2022-12-10T19:36:45;100996.66;;;-1.03;71.09
48606;BME280;8482;54.396;18.590;2022-12-10T19:39:21;101000.09;;;-1.02;70.86
48606;BME280;8482;54.396;18.590;2022-12-10T19:41:48;101007.84;;;-0.99;71.56
48606;BME280;8482;54.396;18.590;2022-12-10T19:44:15;100991.44;;;-1.03;71.26
48606;BME280;8482;54.396;18.590;2022-12-10T19:46:41;101002.56;;;-0.96;71.14
48606;BME280;8482;54.396;18.590;2022-12-10T19:49:11;101005.09;;;-0.93;70.91
48606;BME280;8482;54.396;18.590;2022-12-10T19:51:37;101007.63;;;-0.91;71.03
48606;BME280;8482;54.396;18.590;2022-12-10T19:54:03;101005.88;;;-0.91;70.20
48606;BME280;8482;54.396;18.590;2022-12-10T19:56:32;101011.06;;;-0.89;71.16
48606;BME280;8482;54.396;18.590;2022-12-10T19:59:10;101009.28;;;-0.89;70.51
48606;BME280;8482;54.396;18.590;2022-12-10T20:01:36;101005.84;;;-0.89;70.21
48606;BME280;8482;54.396;18.590;2022-12-10T20:04:02;101009.34;;;-0.90;70.68
48606;BME280;8482;54.396;18.590;2022-12-10T20:06:35;101006.81;;;-0.94;70.49
48606;BME280;8482;54.396;18.590;2022-12-10T20:09:09;101010.25;;;-0.91;70.65
48606;BME280;8482;54.396;18.590;2022-12-10T20:11:38;101012.91;;;-0.95;70.26
48606;BME280;8482;54.396;18.590;2022-12-10T20:14:04;101006.13;;;-1.00;70.53
48606;BME280;8482;54.396;18.590;2022-12-10T20:16:33;101017.31;;;-0.97;70.28
48606;BME280;8482;54.396;18.590;2022-12-10T20:18:58;101019.09;;;-0.99;70.80
48606;BME280;8482;54.396;18.590;2022-12-10T20:21:25;101014.84;;;-1.01;70.46
48606;BME280;8482;54.396;18.590;2022-12-10T20:23:52;101011.41;;;-1.03;71.05
48606;BME280;8482;54.396;18.590;2022-12-10T20:26:41;101011.38;;;-1.02;70.42
48606;BME280;8482;54.396;18.590;2022-12-10T20:29:23;101011.41;;;-1.03;70.81
48606;BME280;8482;54.396;18.590;2022-12-10T20:31:53;101012.31;;;-1.04;71.09
48606;BME280;8482;54.396;18.590;2022-12-10T20:34:20;101017.44;;;-1.01;70.66
48606;BME280;8482;54.396;18.590;2022-12-10T20:36:47;101016.59;;;-1.02;70.92
48606;BME280;8482;54.396;18.590;2022-12-10T20:39:23;101007.16;;;-1.06;70.99
48606;BME280;8482;54.396;18.590;2022-12-10T20:41:51;101005.50;;;-1.09;70.18
48606;BME280;8482;54.396;18.590;2022-12-10T20:44:18;101008.78;;;-1.02;71.03
48606;BME280;8482;54.396;18.590;2022-12-10T20:46:46;101013.09;;;-1.01;70.25
48606;BME280;8482;54.396;18.590;2022-12-10T20:49:14;101014.84;;;-1.01;70.40
48606;BME280;8482;54.396;18.590;2022-12-10T20:51:40;101014.91;;;-1.04;69.78
48606;BME280;8482;54.396;18.590;2022-12-10T20:54:07;101011.53;;;-1.08;70.07
48606;BME280;8482;54.396;18.590;2022-12-10T20:56:33;101012.47;;;-1.11;70.45
48606;BME280;8482;54.396;18.590;2022-12-10T20:59:00;101010.81;;;-1.13;70.20
48606;BME280;8482;54.396;18.590;2022-12-10T21:01:26;101016.03;;;-1.13;70.51
48606;BME280;8482;54.396;18.590;2022-12-10T21:03:52;101020.41;;;-1.15;70.15
48606;BME280;8482;54.396;18.590;2022-12-10T21:06:26;101020.38;;;-1.14;70.11
48606;BME280;8482;54.396;18.590;2022-12-10T21:08:52;101010.91;;;-1.18;70.63
48606;BME280;8482;54.396;18.590;2022-12-10T21:11:19;101015.28;;;-1.18;70.30
48606;BME280;8482;54.396;18.590;2022-12-10T21:13:46;101007.47;;;-1.18;70.65
48606;BME280;8482;54.396;18.590;2022-12-10T21:16:16;101006.72;;;-1.24;69.99
48606;BME280;8482;54.396;18.590;2022-12-10T21:18:43;101012.72;;;-1.20;70.78
48606;BME280;8482;54.396;18.590;2022-12-10T21:21:13;101007.53;;;-1.21;69.91
48606;BME280;8482;54.396;18.590;2022-12-10T21:23:40;101011.97;;;-1.25;70.45
48606;BME280;8482;54.396;18.590;2022-12-10T21:26:06;101018.03;;;-1.25;70.29
48606;BME280;8482;54.396;18.590;2022-12-10T21:28:33;101016.31;;;-1.26;71.00
48606;BME280;8482;54.396;18.590;2022-12-10T21:30:59;101009.50;;;-1.30;70.25
48606;BME280;8482;54.396;18.590;2022-12-10T21:33:26;101002.53;;;-1.29;71.06
48606;BME280;8482;54.396;18.590;2022-12-10T21:35:53;100996.56;;;-1.33;70.78
48606;BME280;8482;54.396;18.590;2022-12-10T21:38:22;100992.41;;;-1.40;70.35
48606;BME280;8482;54.396;18.590;2022-12-10T21:40:48;101005.31;;;-1.37;70.09
48606;BME280;8482;54.396;18.590;2022-12-10T21:43:21;101012.34;;;-1.41;70.13
48606;BME280;8482;54.396;18.590;2022-12-10T21:45:55;101004.66;;;-1.45;70.42
48606;BME280;8482;54.396;18.590;2022-12-10T21:48:26;101003.00;;;-1.48;69.95
48606;BME280;8482;54.396;18.590;2022-12-10T21:51:02;101008.22;;;-1.49;70.43
48606;BME280;8482;54.396;18.590;2022-12-10T21:53:29;101012.59;;;-1.50;70.56
48606;BME280;8482;54.396;18.590;2022-12-10T21:55:54;101014.44;;;-1.55;70.49
48606;BME280;8482;54.396;18.590;2022-12-10T21:58:20;101006.81;;;-1.63;70.72
48606;BME280;8482;54.396;18.590;2022-12-10T22:00:56;100999.00;;;-1.61;70.37
48606;BME280;8482;54.396;18.590;2022-12-10T22:03:23;101000.72;;;-1.62;70.79
48606;BME280;8482;54.396;18.590;2022-12-10T22:05:49;101001.59;;;-1.61;70.36
48606;BME280;8482;54.396;18.590;2022-12-10T22:08:15;100997.28;;;-1.62;70.96
48606;BME280;8482;54.396;18.590;2022-12-10T22:10:41;100999.78;;;-1.58;70.35
48606;BME280;8482;54.396;18.590;2022-12-10T22:13:07;100994.69;;;-1.64;70.40
48606;BME280;8482;54.396;18.590;2022-12-10T22:15:38;100993.75;;;-1.60;70.24
48606;BME280;8482;54.396;18.590;2022-12-10T22:18:04;100993.69;;;-1.58;70.08
